Time;durP1;ratioP1;P1;durP2;ratioP2;P2;SDS_P1;SDS_P2;PMS_P1;PMS_P2;Temp;Humidity;BMP_temperature;BMP_pressure;BME280_temperature;BME280_humidity;BME280_pressure;Samples;Min_cycle;Max_cycle;Signal;HPM_P1;HPM_P2
2022/11/25 00:01:04;;;;;;;;;;;18.00;90.70;;;;;;5116203;28;20393;-40
2022/11/25 00:03:30;;;;;;;;;;;18.00;90.70;;;;;;5116172;28;19912;-40
2022/11/25 00:05:55;;;;;;;;;;;18.10;90.70;;;;;;5116341;28;19960;-40
2022/11/25 00:08:20;;;;;;;;;;;18.10;90.70;;;;;;5116047;28;19920;-40
2022/11/25 00:10:46;;;;;;;;;;;18.10;91.00;;;;;;5116268;28;19919;-41
2022/11/25 00:13:11;;;;;;;;;;;18.10;90.80;;;;;;5115821;28;19908;-40
2022/11/25 00:15:37;;;;;;;;;;;18.00;90.80;;;;;;5116193;28;20029;-40
2022/11/25 00:18:02;;;;;;;;;;;18.10;90.80;;;;;;5097927;28;20351;-40
2022/11/25 00:20:28;;;;;;;;;;;18.10;90.80;;;;;;5116132;28;19947;-40
2022/11/25 00:22:53;;;;;;;;;;;18.00;90.80;;;;;;5097401;28;20002;-40
2022/11/25 00:25:19;;;;;;;;;;;18.00;90.80;;;;;;5095669;28;19912;-41
2022/11/25 00:27:44;;;;;;;;;;;18.00;90.80;;;;;;5095328;28;20365;-40
2022/11/25 00:30:10;;;;;;;;;;;18.00;90.80;;;;;;5095567;28;19908;-40
2022/11/25 00:32:35;;;;;;;;;;;18.00;90.80;;;;;;5077229;28;19909;-40
2022/11/25 00:35:01;;;;;;;;;;;18.00;90.90;;;;;;5095248;28;19912;-41
2022/11/25 00:37:26;;;;;;;;;;;18.00;90.90;;;;;;5095439;28;19999;-40
2022/11/25 00:39:52;;;;;;;;;;;18.00;90.90;;;;;;5095391;28;19912;-40
2022/11/25 00:45:01;;;;;;;;;;;18.00;90.90;;;;;;5094840;28;19986;-40
2022/11/25 00:47:28;;;;;;;;;;;18.00;90.90;;;;;;5094987;28;19920;-52
2022/11/25 00:49:53;;;;;;;;;;;18.00;90.90;;;;;;5082128;28;19908;-40
2022/11/25 00:52:20;;;;;;;;;;;17.90;90.90;;;;;;5095194;28;19927;-40
2022/11/25 00:54:46;;;;;;;;;;;17.90;90.90;;;;;;5076765;28;19904;-41
2022/11/25 00:57:12;;;;;;;;;;;17.90;90.90;;;;;;5094793;28;19904;-41
2022/11/25 00:59:37;;;;;;;;;;;18.00;90.90;;;;;;5095006;28;19966;-40
2022/11/25 01:02:03;;;;;;;;;;;18.00;90.90;;;;;;5094731;28;19907;-41
2022/11/25 01:04:28;;;;;;;;;;;18.00;90.90;;;;;;5087572;28;19944;-41
2022/11/25 01:06:55;;;;;;;;;;;18.00;91.00;;;;;;5087391;28;19916;-41
2022/11/25 01:09:21;;;;;;;;;;;17.90;91.00;;;;;;5094414;28;20363;-41
2022/11/25 01:11:48;;;;;;;;;;;17.90;91.00;;;;;;5072816;28;20015;-41
2022/11/25 01:14:13;;;;;;;;;;;18.00;91.00;;;;;;5073663;28;19915;-40
2022/11/25 01:16:39;;;;;;;;;;;17.90;91.00;;;;;;5073863;28;20367;-41
2022/11/25 01:19:04;;;;;;;;;;;17.90;91.00;;;;;;5073500;28;19908;-40
2022/11/25 01:21:31;;;;;;;;;;;17.90;91.00;;;;;;5072611;28;19912;-45
2022/11/25 01:24:00;;;;;;;;;;;17.90;91.00;;;;;;5072810;28;19908;-42
2022/11/25 01:26:26;;;;;;;;;;;17.90;91.00;;;;;;5072700;28;19908;-41
2022/11/25 01:28:53;;;;;;;;;;;17.90;91.00;;;;;;5072609;28;20336;-41
2022/11/25 01:31:19;;;;;;;;;;;17.90;91.00;;;;;;5072451;28;19995;-42
2022/11/25 01:33:46;;;;;;;;;;;17.90;91.00;;;;;;5072777;28;19931;-41
2022/11/25 01:36:15;;;;;;;;;;;17.90;91.10;;;;;;5072567;28;19936;-41
2022/11/25 01:38:40;;;;;;;;;;;17.90;91.10;;;;;;5072260;28;19932;-41
2022/11/25 01:41:07;;;;;;;;;;;17.80;91.10;;;;;;5072666;28;20643;-40
2022/11/25 01:43:33;;;;;;;;;;;17.80;91.10;;;;;;5072468;28;19916;-40
2022/11/25 01:46:17;;;;;;;;;;;17.90;91.10;;;;;;5072380;28;19908;-41
2022/11/25 01:48:55;;;;;;;;;;;17.80;91.00;;;;;;5071266;28;19916;-41
2022/11/25 01:51:24;;;;;;;;;;;17.90;91.10;;;;;;5072572;28;19908;-41
2022/11/25 01:53:50;;;;;;;;;;;17.90;91.10;;;;;;5067042;28;19999;-41
2022/11/25 01:56:16;;;;;;;;;;;17.80;91.00;;;;;;5072208;28;20316;-44
2022/11/25 01:58:42;;;;;;;;;;;17.90;91.10;;;;;;5071718;28;19912;-41
2022/11/25 02:01:07;;;;;;;;;;;17.90;91.10;;;;;;5071962;28;20367;-41
2022/11/25 02:03:38;;;;;;;;;;;17.90;91.10;;;;;;5071941;28;19909;-41
2022/11/25 02:06:07;;;;;;;;;;;17.80;91.10;;;;;;5072289;28;19915;-43
2022/11/25 02:08:32;;;;;;;;;;;17.80;91.10;;;;;;5072069;28;19923;-41
2022/11/25 02:10:59;;;;;;;;;;;17.90;91.10;;;;;;5084168;28;19924;-41
2022/11/25 02:13:25;;;;;;;;;;;17.90;91.10;;;;;;5093949;28;19958;-41
2022/11/25 02:15:50;;;;;;;;;;;17.90;91.10;;;;;;5093520;28;19959;-41
2022/11/25 02:18:16;;;;;;;;;;;17.80;91.10;;;;;;5077821;28;19948;-41
2022/11/25 02:20:41;;;;;;;;;;;17.80;91.10;;;;;;5098254;28;19908;-40
2022/11/25 02:23:07;;;;;;;;;;;17.80;91.10;;;;;;5079725;28;20319;-40
2022/11/25 02:25:42;;;;;;;;;;;17.90;91.10;;;;;;5097584;28;20397;-40
2022/11/25 02:28:21;;;;;;;;;;;17.80;91.10;;;;;;5097779;28;19923;-41
2022/11/25 02:30:46;;;;;;;;;;;17.80;91.10;;;;;;5097472;28;19912;-41
2022/11/25 02:33:13;;;;;;;;;;;17.80;91.10;;;;;;5097899;28;19962;-41
2022/11/25 02:35:40;;;;;;;;;;;17.80;91.10;;;;;;5097532;28;20002;-40
2022/11/25 02:38:15;;;;;;;;;;;17.80;91.10;;;;;;5097250;28;19948;-41
2022/11/25 02:40:46;;;;;;;;;;;17.80;91.10;;;;;;5097288;28;19991;-41
2022/11/25 02:43:12;;;;;;;;;;;17.80;91.10;;;;;;5097179;28;19912;-40
2022/11/25 02:45:44;;;;;;;;;;;17.80;91.10;;;;;;5097100;28;19909;-40
2022/11/25 02:48:09;;;;;;;;;;;17.80;91.20;;;;;;5097349;28;20255;-41
2022/11/25 02:50:35;;;;;;;;;;;17.80;91.20;;;;;;5097347;28;19915;-41
2022/11/25 02:53:00;;;;;;;;;;;17.80;91.20;;;;;;5097068;28;19915;-40
2022/11/25 02:55:25;;;;;;;;;;;17.80;91.20;;;;;;5097349;28;20366;-40
2022/11/25 02:57:51;;;;;;;;;;;17.80;91.10;;;;;;5097498;28;19935;-41
2022/11/25 03:00:17;;;;;;;;;;;17.80;91.20;;;;;;5097243;28;19939;-41
2022/11/25 03:02:42;;;;;;;;;;;17.80;91.20;;;;;;5097144;28;20267;-40
2022/11/25 03:05:08;;;;;;;;;;;17.80;91.40;;;;;;5096839;28;19912;-41
2022/11/25 03:07:33;;;;;;;;;;;17.80;91.20;;;;;;5096713;28;19923;-40
2022/11/25 03:09:58;;;;;;;;;;;17.80;91.20;;;;;;5096881;28;19971;-40
2022/11/25 03:12:24;;;;;;;;;;;17.80;91.20;;;;;;5078528;28;19961;-40
2022/11/25 03:14:50;;;;;;;;;;;17.80;91.20;;;;;;5096997;28;20000;-43
2022/11/25 03:17:15;;;;;;;;;;;17.80;91.20;;;;;;5096861;28;19912;-40
2022/11/25 03:19:41;;;;;;;;;;;17.70;91.10;;;;;;5096799;28;19912;-40
2022/11/25 03:22:06;;;;;;;;;;;17.70;91.20;;;;;;5096774;28;19908;-40
2022/11/25 03:24:32;;;;;;;;;;;17.70;91.20;;;;;;5096673;28;19951;-40
2022/11/25 03:26:57;;;;;;;;;;;17.70;91.20;;;;;;5078447;28;19969;-40
2022/11/25 03:29:23;;;;;;;;;;;17.70;91.20;;;;;;5095958;28;19912;-40
2022/11/25 03:31:48;;;;;;;;;;;17.70;91.40;;;;;;5096419;28;20355;-40
2022/11/25 03:34:14;;;;;;;;;;;17.70;91.20;;;;;;5078409;28;19974;-40
2022/11/25 03:36:39;;;;;;;;;;;17.70;91.20;;;;;;5096333;28;19908;-40
2022/11/25 03:39:05;;;;;;;;;;;17.70;91.20;;;;;;5096555;28;19912;-40
2022/11/25 03:41:30;;;;;;;;;;;17.70;91.20;;;;;;5096388;28;20003;-40
2022/11/25 03:43:55;;;;;;;;;;;17.80;91.20;;;;;;5096035;28;20355;-40
2022/11/25 03:46:21;;;;;;;;;;;17.70;91.20;;;;;;5096626;28;19963;-42
2022/11/25 03:48:46;;;;;;;;;;;17.70;91.20;;;;;;5095925;28;20337;-39
2022/11/25 03:51:12;;;;;;;;;;;17.70;91.20;;;;;;5095997;28;20270;-40
2022/11/25 03:53:37;;;;;;;;;;;17.70;91.20;;;;;;5095935;28;19954;-40
2022/11/25 03:56:03;;;;;;;;;;;17.70;91.20;;;;;;5095815;28;19954;-40
2022/11/25 03:58:28;;;;;;;;;;;17.70;91.20;;;;;;5096046;28;19908;-40
2022/11/25 04:00:58;;;;;;;;;;;17.70;91.20;;;;;;5096157;28;19955;-40
2022/11/25 04:03:23;;;;;;;;;;;17.70;91.20;;;;;;5095697;28;19913;-40
2022/11/25 04:05:49;;;;;;;;;;;17.70;91.20;;;;;;5095992;28;19908;-40
2022/11/25 04:08:14;;;;;;;;;;;17.80;91.20;;;;;;5095413;28;19964;-40
2022/11/25 04:10:40;;;;;;;;;;;17.80;91.20;;;;;;5095513;28;20278;-40
2022/11/25 04:13:05;;;;;;;;;;;17.70;91.20;;;;;;5095499;28;19916;-40
2022/11/25 04:15:31;;;;;;;;;;;17.70;91.20;;;;;;5095730;28;20359;-39
2022/11/25 04:17:56;;;;;;;;;;;17.70;91.20;;;;;;5095456;28;20426;-40
2022/11/25 04:20:21;;;;;;;;;;;17.70;91.20;;;;;;5095700;28;20381;-42
2022/11/25 04:22:47;;;;;;;;;;;17.70;91.20;;;;;;5077073;28;19912;-40
2022/11/25 04:25:12;;;;;;;;;;;17.70;91.20;;;;;;5094915;28;19999;-40
2022/11/25 04:27:38;;;;;;;;;;;17.70;91.20;;;;;;5094997;28;20363;-40
2022/11/25 04:30:04;;;;;;;;;;;17.70;91.20;;;;;;5094974;28;19908;-40
2022/11/25 04:32:30;;;;;;;;;;;17.70;91.20;;;;;;5095072;28;19986;-40
2022/11/25 04:34:55;;;;;;;;;;;17.70;91.30;;;;;;5094931;28;20351;-40
2022/11/25 04:37:21;;;;;;;;;;;17.70;91.20;;;;;;5095352;28;19912;-41
2022/11/25 04:39:46;;;;;;;;;;;17.70;91.20;;;;;;5094754;28;20019;-40
2022/11/25 04:42:30;;;;;;;;;;;17.70;91.20;;;;;;5094678;28;20422;-40
2022/11/25 04:44:56;;;;;;;;;;;17.70;91.20;;;;;;5095239;28;20343;-40
2022/11/25 04:47:22;;;;;;;;;;;17.70;91.20;;;;;;5095009;28;20015;-40
2022/11/25 04:49:47;;;;;;;;;;;17.70;91.40;;;;;;5094931;28;20283;-40
2022/11/25 04:52:12;;;;;;;;;;;17.70;91.20;;;;;;5076652;28;19915;-40
2022/11/25 04:54:38;;;;;;;;;;;17.70;91.20;;;;;;5094549;28;19915;-39
2022/11/25 04:57:04;;;;;;;;;;;17.70;91.30;;;;;;5094802;28;20243;-40
2022/11/25 04:59:38;;;;;;;;;;;17.70;91.30;;;;;;5094838;28;19915;-40
2022/11/25 05:02:04;;;;;;;;;;;17.70;91.30;;;;;;5094431;28;19967;-40
2022/11/25 05:04:29;;;;;;;;;;;17.70;91.20;;;;;;5094710;28;19951;-40
2022/11/25 05:06:55;;;;;;;;;;;17.70;91.20;;;;;;5094591;28;19916;-40
2022/11/25 05:09:20;;;;;;;;;;;17.70;91.20;;;;;;5094609;28;19912;-40
2022/11/25 05:11:46;;;;;;;;;;;17.70;91.30;;;;;;5094680;28;19989;-40
2022/11/25 05:14:12;;;;;;;;;;;17.70;91.30;;;;;;5094445;28;20007;-40
2022/11/25 05:16:37;;;;;;;;;;;17.70;91.30;;;;;;5094165;28;19908;-40
2022/11/25 05:19:03;;;;;;;;;;;17.70;91.30;;;;;;5094123;28;19908;-40
2022/11/25 05:21:28;;;;;;;;;;;17.60;91.30;;;;;;5094471;28;19909;-40
2022/11/25 05:23:54;;;;;;;;;;;17.70;91.30;;;;;;5094046;28;19928;-43
2022/11/25 05:26:19;;;;;;;;;;;17.70;91.30;;;;;;5094404;28;19908;-40
2022/11/25 05:28:45;;;;;;;;;;;17.60;91.20;;;;;;5094151;28;19974;-40
2022/11/25 05:31:10;;;;;;;;;;;17.70;91.30;;;;;;5094460;28;19919;-40
2022/11/25 05:33:36;;;;;;;;;;;17.70;91.30;;;;;;5076150;28;19908;-40
2022/11/25 05:36:02;;;;;;;;;;;17.70;91.30;;;;;;5094283;28;19909;-40
2022/11/25 05:38:28;;;;;;;;;;;17.60;91.30;;;;;;5075650;28;19993;-40
2022/11/25 05:40:59;;;;;;;;;;;17.70;91.30;;;;;;5094025;28;19912;-40
2022/11/25 05:43:24;;;;;;;;;;;17.70;91.30;;;;;;5094285;28;19908;-40
2022/11/25 05:45:50;;;;;;;;;;;17.70;91.30;;;;;;5094242;28;20283;-40
2022/11/25 05:48:15;;;;;;;;;;;17.60;91.30;;;;;;5093728;28;19916;-40
2022/11/25 05:50:41;;;;;;;;;;;17.60;91.30;;;;;;5094218;28;19965;-40
2022/11/25 05:53:06;;;;;;;;;;;17.70;91.30;;;;;;5093925;28;20015;-41
2022/11/25 05:55:32;;;;;;;;;;;17.70;91.30;;;;;;5093789;28;19954;-41
2022/11/25 05:57:58;;;;;;;;;;;17.60;91.30;;;;;;5093709;28;19908;-41
2022/11/25 06:00:23;;;;;;;;;;;17.70;91.30;;;;;;5094046;28;19908;-40
2022/11/25 06:02:49;;;;;;;;;;;17.60;91.30;;;;;;5093874;28;20428;-42
2022/11/25 06:05:14;;;;;;;;;;;17.60;91.30;;;;;;5093574;28;19908;-41
2022/11/25 06:07:40;;;;;;;;;;;17.60;91.30;;;;;;5093486;28;20019;-41
2022/11/25 06:10:06;;;;;;;;;;;17.60;91.40;;;;;;5093416;28;19924;-41
2022/11/25 06:12:31;;;;;;;;;;;17.50;91.40;;;;;;5093684;28;19913;-41
2022/11/25 06:14:57;;;;;;;;;;;17.60;91.40;;;;;;5089191;28;19916;-51
2022/11/25 06:17:22;;;;;;;;;;;17.60;91.40;;;;;;5091948;28;19912;-41
2022/11/25 06:19:48;;;;;;;;;;;17.50;91.40;;;;;;5091936;28;19919;-42
2022/11/25 06:22:13;;;;;;;;;;;17.50;91.50;;;;;;5091888;28;19977;-40
2022/11/25 06:24:39;;;;;;;;;;;17.50;91.50;;;;;;5091889;28;19909;-41
2022/11/25 06:27:04;;;;;;;;;;;17.50;91.50;;;;;;5092057;28;19927;-41
2022/11/25 06:29:29;;;;;;;;;;;17.40;91.50;;;;;;5092166;28;19981;-42
2022/11/25 06:31:55;;;;;;;;;;;17.50;91.50;;;;;;5092045;28;20255;-42
2022/11/25 06:34:21;;;;;;;;;;;17.50;91.60;;;;;;5092269;28;19966;-42
2022/11/25 06:36:47;;;;;;;;;;;17.40;91.60;;;;;;5091652;28;19916;-41
2022/11/25 06:39:13;;;;;;;;;;;17.40;91.60;;;;;;5091580;28;19908;-41
2022/11/25 06:41:38;;;;;;;;;;;17.40;91.60;;;;;;5091868;28;19920;-43
2022/11/25 06:44:04;;;;;;;;;;;17.50;91.60;;;;;;5093060;28;19908;-41
2022/11/25 06:46:30;;;;;;;;;;;17.40;91.60;;;;;;5102680;28;19912;-41
2022/11/25 06:48:57;;;;;;;;;;;17.40;91.70;;;;;;5098468;28;19970;-47
2022/11/25 06:51:23;;;;;;;;;;;17.40;91.90;;;;;;5091485;28;19916;-41
2022/11/25 06:53:48;;;;;;;;;;;17.50;91.90;;;;;;5113599;28;19908;-41
2022/11/25 06:56:15;;;;;;;;;;;17.50;91.80;;;;;;5107741;28;20395;-42
2022/11/25 06:58:42;;;;;;;;;;;17.60;92.10;;;;;;5113530;28;20392;-41
2022/11/25 07:01:11;;;;;;;;;;;17.60;92.00;;;;;;5087143;28;19912;-42
2022/11/25 07:03:36;;;;;;;;;;;17.60;92.00;;;;;;5111134;28;20015;-42
2022/11/25 07:06:02;;;;;;;;;;;17.60;92.00;;;;;;5115928;28;20015;-42
2022/11/25 07:08:28;;;;;;;;;;;17.60;92.00;;;;;;5113611;28;19920;-43
2022/11/25 07:10:53;;;;;;;;;;;17.60;92.10;;;;;;5116833;28;19924;-42
2022/11/25 07:13:19;;;;;;;;;;;17.60;92.00;;;;;;5094015;28;19943;-42
2022/11/25 07:15:45;;;;;;;;;;;17.60;92.20;;;;;;5109100;28;19919;-42
2022/11/25 07:18:11;;;;;;;;;;;17.60;92.00;;;;;;5090957;28;19912;-46
2022/11/25 07:20:36;;;;;;;;;;;17.60;92.00;;;;;;5092533;28;20003;-43
2022/11/25 07:23:02;;;;;;;;;;;17.60;92.10;;;;;;5109823;28;19947;-43
2022/11/25 07:25:27;;;;;;;;;;;17.60;92.10;;;;;;5110061;28;19912;-44
2022/11/25 07:27:53;;;;;;;;;;;17.60;92.00;;;;;;5097607;28;19928;-44
2022/11/25 07:30:18;;;;;;;;;;;17.70;92.00;;;;;;5092153;28;19996;-42
2022/11/25 07:32:44;;;;;;;;;;;17.70;92.00;;;;;;5073930;28;19927;-42
2022/11/25 07:35:09;;;;;;;;;;;17.70;92.00;;;;;;5114033;28;19912;-39
2022/11/25 07:37:35;;;;;;;;;;;17.70;92.00;;;;;;5103329;28;19911;-40
2022/11/25 07:40:00;;;;;;;;;;;17.70;92.00;;;;;;5093807;28;19931;-40
2022/11/25 07:42:26;;;;;;;;;;;17.70;91.90;;;;;;5108976;28;19922;-47
2022/11/25 07:44:51;;;;;;;;;;;17.70;91.90;;;;;;5082870;28;19920;-40
2022/11/25 07:47:17;;;;;;;;;;;17.70;91.90;;;;;;5101305;28;20030;-40
2022/11/25 07:49:42;;;;;;;;;;;17.70;91.80;;;;;;5110051;28;19916;-42
2022/11/25 07:52:08;;;;;;;;;;;17.70;91.80;;;;;;5109643;28;19912;-55
2022/11/25 07:54:33;;;;;;;;;;;17.70;91.80;;;;;;5113086;28;19964;-40
2022/11/25 07:56:59;;;;;;;;;;;17.70;91.70;;;;;;5112013;28;20014;-41
2022/11/25 07:59:24;;;;;;;;;;;17.70;91.70;;;;;;5116117;28;20263;-42
2022/11/25 08:01:51;;;;;;;;;;;17.70;91.70;;;;;;5088283;28;19908;-45
2022/11/25 08:04:17;;;;;;;;;;;17.70;91.70;;;;;;5104569;28;19908;-41
2022/11/25 08:06:43;;;;;;;;;;;17.70;91.70;;;;;;5092931;28;19908;-41
2022/11/25 08:09:10;;;;;;;;;;;17.60;91.60;;;;;;5096012;28;19990;-41
2022/11/25 08:11:36;;;;;;;;;;;17.70;91.70;;;;;;5099609;28;19916;-41
2022/11/25 08:14:02;;;;;;;;;;;17.70;91.60;;;;;;5099373;28;19971;-42
2022/11/25 08:16:29;;;;;;;;;;;17.70;91.60;;;;;;5111026;28;19907;-41
2022/11/25 08:18:56;;;;;;;;;;;17.70;91.70;;;;;;5110008;28;19915;-41
2022/11/25 08:21:21;;;;;;;;;;;17.60;91.60;;;;;;5109452;28;19911;-46
2022/11/25 08:23:47;;;;;;;;;;;17.70;91.60;;;;;;5074682;28;20380;-41
2022/11/25 08:26:20;;;;;;;;;;;17.60;91.60;;;;;;5095096;28;19904;-42
2022/11/25 08:28:46;;;;;;;;;;;17.60;91.60;;;;;;5094999;28;19916;-42
2022/11/25 08:31:25;;;;;;;;;;;17.50;91.60;;;;;;5095657;28;20292;-42
2022/11/25 08:33:51;;;;;;;;;;;17.50;91.60;;;;;;5095283;28;20342;-44
2022/11/25 08:36:17;;;;;;;;;;;17.60;91.70;;;;;;5087577;28;20262;-41
2022/11/25 08:38:44;;;;;;;;;;;17.60;91.70;;;;;;5088476;28;20007;-41
2022/11/25 08:41:11;;;;;;;;;;;17.50;91.60;;;;;;5093899;28;20322;-48
2022/11/25 08:43:36;;;;;;;;;;;17.60;91.60;;;;;;5098851;28;20303;-45
2022/11/25 08:46:05;;;;;;;;;;;17.60;91.60;;;;;;5115621;28;19958;-40
2022/11/25 08:48:31;;;;;;;;;;;17.50;91.60;;;;;;5105654;28;19931;-41
2022/11/25 08:50:57;;;;;;;;;;;17.50;91.50;;;;;;5109779;28;19916;-41
2022/11/25 08:53:22;;;;;;;;;;;17.60;91.70;;;;;;5109433;28;20316;-40
2022/11/25 08:55:48;;;;;;;;;;;17.60;91.70;;;;;;5115090;28;19908;-41
2022/11/25 08:58:14;;;;;;;;;;;17.60;91.50;;;;;;5100704;28;19919;-41
2022/11/25 09:00:40;;;;;;;;;;;17.60;91.60;;;;;;5092282;28;19928;-41
2022/11/25 09:03:05;;;;;;;;;;;17.60;91.60;;;;;;5100104;28;19912;-41
2022/11/25 09:05:34;;;;;;;;;;;17.60;91.60;;;;;;5094779;28;20409;-41
2022/11/25 09:08:03;;;;;;;;;;;17.60;91.70;;;;;;5095710;28;19920;-41
2022/11/25 09:10:30;;;;;;;;;;;17.60;91.60;;;;;;5088055;28;20383;-41
2022/11/25 09:12:55;;;;;;;;;;;17.60;91.60;;;;;;5077094;28;19913;-41
2022/11/25 09:15:22;;;;;;;;;;;17.60;91.60;;;;;;5073985;28;20142;-41
2022/11/25 09:17:47;;;;;;;;;;;17.60;91.60;;;;;;5074314;28;20006;-41
2022/11/25 09:20:13;;;;;;;;;;;17.60;91.60;;;;;;5072921;28;19940;-40
2022/11/25 09:22:38;;;;;;;;;;;17.60;91.70;;;;;;5074232;28;19983;-40
2022/11/25 09:25:04;;;;;;;;;;;17.60;91.60;;;;;;5074451;28;20378;-40
2022/11/25 09:27:30;;;;;;;;;;;17.50;91.50;;;;;;5073734;28;19924;-43
2022/11/25 09:29:56;;;;;;;;;;;17.60;91.60;;;;;;5074408;28;20408;-40
2022/11/25 09:32:21;;;;;;;;;;;17.60;91.60;;;;;;5073947;28;19916;-40
2022/11/25 09:34:46;;;;;;;;;;;17.50;91.60;;;;;;5073581;28;20275;-40
2022/11/25 09:37:12;;;;;;;;;;;17.60;91.60;;;;;;5073633;28;19912;-40
2022/11/25 09:39:37;;;;;;;;;;;17.60;91.60;;;;;;5073474;28;20355;-40
2022/11/25 09:48:04;;;;;;;;;;;17.60;91.50;;;;;;5073675;28;19923;-40
2022/11/25 09:50:29;;;;;;;;;;;17.60;91.40;;;;;;5073927;28;20267;-40
2022/11/25 09:53:21;;;;;;;;;;;17.60;91.50;;;;;;5074164;28;19908;-40
2022/11/25 09:55:48;;;;;;;;;;;17.60;91.40;;;;;;5073360;28;20373;-41
2022/11/25 09:58:27;;;;;;;;;;;17.60;91.40;;;;;;5072982;28;19908;-39
2022/11/25 10:00:53;;;;;;;;;;;17.50;91.50;;;;;;5073239;28;19909;-40
2022/11/25 10:03:18;;;;;;;;;;;17.60;91.50;;;;;;5073636;28;20216;-40
2022/11/25 10:05:46;;;;;;;;;;;17.50;91.50;;;;;;5073085;28;19909;-40
2022/11/25 10:08:14;;;;;;;;;;;17.50;91.50;;;;;;5055180;28;20431;-41
2022/11/25 10:10:44;;;;;;;;;;;17.60;91.60;;;;;;5073482;28;19932;-40
2022/11/25 10:13:26;;;;;;;;;;;17.50;91.60;;;;;;5072854;28;20332;-40
2022/11/25 10:15:53;;;;;;;;;;;17.50;91.60;;;;;;5073601;28;20277;-41
2022/11/25 10:18:22;;;;;;;;;;;17.50;91.50;;;;;;5073466;28;19915;-41
2022/11/25 10:20:49;;;;;;;;;;;17.50;91.60;;;;;;5073324;28;19913;-40
2022/11/25 10:23:18;;;;;;;;;;;17.50;91.60;;;;;;5073575;28;19908;-41
2022/11/25 10:25:45;;;;;;;;;;;17.50;91.50;;;;;;5073276;28;19908;-40
2022/11/25 10:28:18;;;;;;;;;;;17.50;91.60;;;;;;5072866;28;20335;-41
2022/11/25 10:31:03;;;;;;;;;;;17.50;91.60;;;;;;5073225;28;19999;-41
2022/11/25 10:33:35;;;;;;;;;;;17.50;91.60;;;;;;5073141;28;20413;-41
2022/11/25 10:36:06;;;;;;;;;;;17.50;91.50;;;;;;5073299;28;19944;-40
2022/11/25 10:38:41;;;;;;;;;;;17.50;91.60;;;;;;5073776;28;19919;-42
2022/11/25 10:41:06;;;;;;;;;;;17.50;91.50;;;;;;5077046;28;19962;-41
2022/11/25 10:43:32;;;;;;;;;;;17.50;91.60;;;;;;5076821;28;19909;-40
2022/11/25 10:46:01;;;;;;;;;;;17.50;91.50;;;;;;5077163;28;19908;-40
2022/11/25 10:48:45;;;;;;;;;;;17.50;91.50;;;;;;5076931;28;19913;-40
2022/11/25 10:51:16;;;;;;;;;;;17.60;91.50;;;;;;5076848;28;19920;-41
2022/11/25 10:54:02;;;;;;;;;;;17.50;91.50;;;;;;5077116;28;19999;-39
2022/11/25 10:56:27;;;;;;;;;;;17.60;91.50;;;;;;5076544;28;19915;-40
2022/11/25 10:58:53;;;;;;;;;;;17.60;91.50;;;;;;5076471;28;19995;-40
2022/11/25 11:01:18;;;;;;;;;;;17.50;91.50;;;;;;5076815;28;19909;-40
2022/11/25 11:03:45;;;;;;;;;;;17.50;91.50;;;;;;5076447;28;20320;-40
2022/11/25 11:06:29;;;;;;;;;;;17.50;91.50;;;;;;5076324;28;19938;-40
2022/11/25 11:08:55;;;;;;;;;;;17.50;91.60;;;;;;5076164;28;20363;-40
2022/11/25 11:11:21;;;;;;;;;;;17.50;91.50;;;;;;5075982;28;19929;-40
2022/11/25 11:13:47;;;;;;;;;;;17.50;91.50;;;;;;5076339;28;19919;-40
2022/11/25 11:16:36;;;;;;;;;;;17.50;91.70;;;;;;5075991;28;20355;-40
2022/11/25 11:19:03;;;;;;;;;;;17.50;91.50;;;;;;5067803;28;20438;-40
2022/11/25 11:21:30;;;;;;;;;;;17.50;91.50;;;;;;5076532;28;20009;-40
2022/11/25 11:23:56;;;;;;;;;;;17.50;91.50;;;;;;5076140;28;19953;-40
2022/11/25 11:26:24;;;;;;;;;;;17.50;91.50;;;;;;5076547;28;19919;-40
2022/11/25 11:28:57;;;;;;;;;;;17.50;91.50;;;;;;5075601;28;19917;-40
2022/11/25 11:31:25;;;;;;;;;;;17.50;91.50;;;;;;5075937;28;19913;-40
2022/11/25 11:33:56;;;;;;;;;;;17.50;91.50;;;;;;5076271;28;19981;-40
2022/11/25 11:36:29;;;;;;;;;;;17.50;91.40;;;;;;5075815;28;19919;-40
2022/11/25 11:39:14;;;;;;;;;;;17.50;91.50;;;;;;5075759;28;19908;-40
2022/11/25 11:41:47;;;;;;;;;;;17.50;91.50;;;;;;5076060;28;19908;-40
2022/11/25 11:44:15;;;;;;;;;;;17.50;91.50;;;;;;5075565;28;19991;-40
2022/11/25 11:46:59;;;;;;;;;;;17.50;91.50;;;;;;5074660;28;20041;-40
2022/11/25 11:49:43;;;;;;;;;;;17.50;91.50;;;;;;5075256;28;19917;-40
2022/11/25 11:52:27;;;;;;;;;;;17.50;91.50;;;;;;5075964;28;19915;-41
2022/11/25 11:54:57;;;;;;;;;;;17.50;91.50;;;;;;5075481;28;19909;-40
2022/11/25 11:57:26;;;;;;;;;;;17.50;91.50;;;;;;5075321;28;19919;-40
2022/11/25 11:59:52;;;;;;;;;;;17.50;91.50;;;;;;5075767;28;19928;-41
2022/11/25 12:02:20;;;;;;;;;;;17.50;91.50;;;;;;5057686;28;19999;-41
2022/11/25 12:05:01;;;;;;;;;;;17.50;91.50;;;;;;5075330;28;19916;-40
2022/11/25 12:07:33;;;;;;;;;;;17.50;91.50;;;;;;5075475;28;19938;-40
2022/11/25 12:10:01;;;;;;;;;;;17.50;91.50;;;;;;5075196;28;19928;-41
2022/11/25 12:12:44;;;;;;;;;;;17.50;91.50;;;;;;5103507;28;19916;-41
2022/11/25 12:15:41;;;;;;;;;;;17.40;91.50;;;;;;5104742;28;19997;-40
2022/11/25 12:18:10;;;;;;;;;;;17.50;91.30;;;;;;5033777;28;20274;-41
2022/11/25 12:20:45;;;;;;;;;;;17.40;91.40;;;;;;5095458;28;19919;-41
2022/11/25 12:23:25;;;;;;;;;;;17.40;91.60;;;;;;5096076;28;19911;-41
2022/11/25 12:25:53;;;;;;;;;;;17.40;91.50;;;;;;5111160;28;19912;-41
2022/11/25 12:28:28;;;;;;;;;;;17.40;91.50;;;;;;5115195;28;20007;-41
2022/11/25 12:31:10;;;;;;;;;;;17.40;91.60;;;;;;5106315;28;19912;-41
2022/11/25 12:33:42;;;;;;;;;;;17.40;91.50;;;;;;5107134;28;19912;-41
2022/11/25 12:36:14;;;;;;;;;;;17.40;91.40;;;;;;5081979;28;19994;-42
2022/11/25 12:38:58;;;;;;;;;;;17.40;91.50;;;;;;5102639;28;19919;-42
2022/11/25 12:41:31;;;;;;;;;;;17.40;91.40;;;;;;5093866;28;20291;-41
2022/11/25 12:43:57;;;;;;;;;;;17.40;91.40;;;;;;5076197;28;19915;-42
2022/11/25 12:46:58;;;;;;;;;;;17.50;91.40;;;;;;5094566;28;19912;-41
2022/11/25 12:49:31;;;;;;;;;;;17.50;91.40;;;;;;5032205;28;19917;-41
2022/11/25 12:52:02;;;;;;;;;;;17.50;91.40;;;;;;5084442;28;19960;-41
2022/11/25 12:54:35;;;;;;;;;;;17.50;91.30;;;;;;5098152;28;19912;-41
2022/11/25 12:57:19;;;;;;;;;;;17.50;91.40;;;;;;5086014;28;20264;-42
2022/11/25 12:59:48;;;;;;;;;;;17.50;91.40;;;;;;5074363;28;19909;-40
2022/11/25 13:02:13;;;;;;;;;;;17.50;91.40;;;;;;5081271;28;19923;-42
2022/11/25 13:04:41;;;;;;;;;;;17.50;91.40;;;;;;5094374;28;19909;-42
2022/11/25 13:07:25;;;;;;;;;;;17.50;91.50;;;;;;5076337;28;19908;-41
2022/11/25 13:09:50;;;;;;;;;;;17.50;91.50;;;;;;5106670;28;20065;-44
2022/11/25 13:12:27;;;;;;;;;;;17.50;91.50;;;;;;5094969;28;20371;-42
2022/11/25 13:15:03;;;;;;;;;;;17.40;91.50;;;;;;5094120;28;19915;-42
2022/11/25 13:17:31;;;;;;;;;;;17.40;91.50;;;;;;5093612;28;19908;-44
2022/11/25 13:20:15;;;;;;;;;;;17.50;91.60;;;;;;5092477;28;20200;-43
2022/11/25 13:22:41;;;;;;;;;;;17.50;91.60;;;;;;5075445;28;19908;-41
2022/11/25 13:25:20;;;;;;;;;;;17.50;91.60;;;;;;5094623;28;20266;-42
2022/11/25 13:27:45;;;;;;;;;;;17.50;91.60;;;;;;5094082;28;19979;-41
2022/11/25 13:30:34;;;;;;;;;;;17.40;91.70;;;;;;5094154;28;19915;-41
2022/11/25 13:33:11;;;;;;;;;;;17.40;91.70;;;;;;5080243;28;20014;-41
2022/11/25 13:35:46;;;;;;;;;;;17.50;91.70;;;;;;5094062;28;19908;-42
2022/11/25 13:38:31;;;;;;;;;;;17.40;91.70;;;;;;5094287;28;19974;-42
2022/11/25 13:41:19;;;;;;;;;;;17.40;91.70;;;;;;5094478;28;19931;-41
2022/11/25 13:43:54;;;;;;;;;;;17.40;91.80;;;;;;5094153;28;19960;-41
2022/11/25 13:46:34;;;;;;;;;;;17.40;91.80;;;;;;5094105;28;19908;-41
2022/11/25 13:49:00;;;;;;;;;;;17.40;91.70;;;;;;5093371;28;20374;-40
2022/11/25 13:51:26;;;;;;;;;;;17.40;91.70;;;;;;5094226;28;19908;-41
2022/11/25 13:54:03;;;;;;;;;;;17.40;91.70;;;;;;5093673;28;20007;-41
2022/11/25 13:56:30;;;;;;;;;;;17.40;91.70;;;;;;5093587;28;19954;-40
2022/11/25 13:59:11;;;;;;;;;;;17.40;91.70;;;;;;5093868;28;19908;-41
2022/11/25 14:01:39;;;;;;;;;;;17.40;91.70;;;;;;5075574;28;20406;-42
2022/11/25 14:04:09;;;;;;;;;;;17.50;91.70;;;;;;5093606;28;19908;-41
2022/11/25 14:06:56;;;;;;;;;;;17.40;91.60;;;;;;5093440;28;19908;-40
2022/11/25 14:09:27;;;;;;;;;;;17.40;91.70;;;;;;5094105;28;20026;-41
2022/11/25 14:12:08;;;;;;;;;;;17.40;91.70;;;;;;5093812;28;19935;-41
2022/11/25 14:14:56;;;;;;;;;;;17.40;91.70;;;;;;5097770;28;19915;-41
2022/11/25 14:17:41;;;;;;;;;;;17.50;91.70;;;;;;5098049;28;19967;-41
2022/11/25 14:20:31;;;;;;;;;;;17.40;91.80;;;;;;5097562;28;19916;-43
2022/11/25 14:23:02;;;;;;;;;;;17.40;91.80;;;;;;5097799;28;20428;-41
2022/11/25 14:25:31;;;;;;;;;;;17.40;91.80;;;;;;5093543;28;20418;-42
2022/11/25 14:28:04;;;;;;;;;;;17.40;91.80;;;;;;5087477;28;20709;-47
2022/11/25 14:30:30;;;;;;;;;;;17.40;91.80;;;;;;5078629;28;19916;-41
2022/11/25 14:32:58;;;;;;;;;;;17.40;91.80;;;;;;5096942;28;19908;-41